sensor_id;sensor_type;location;lat;lon;timestamp;temperature;humidity
31653;DHT22;18261;53.648;9.910;2024-03-08T03:28:32;15.70;99.90
31653;DHT22;18261;53.648;9.910;2024-03-08T03:30:58;2.70;99.90
31653;DHT22;18261;53.648;9.910;2024-03-08T03:33:24;2.20;99.90
31653;DHT22;18261;53.648;9.910;2024-03-08T03:35:50;2.10;99.90
31653;DHT22;18261;53.648;9.910;2024-03-08T03:38:17;2.10;99.90
31653;DHT22;18261;53.648;9.910;2024-03-08T03:40:45;2.10;99.90
31653;DHT22;18261;53.648;9.910;2024-03-08T03:43:11;2.00;99.90
31653;DHT22;18261;53.648;9.910;2024-03-08T03:45:38;2.00;99.90
31653;DHT22;18261;53.648;9.910;2024-03-08T03:48:06;2.00;99.90
31653;DHT22;18261;53.648;9.910;2024-03-08T03:50:32;2.00;99.90
31653;DHT22;18261;53.648;9.910;2024-03-08T03:52:59;2.00;99.90
31653;DHT22;18261;53.648;9.910;2024-03-08T03:55:25;1.90;99.90
31653;DHT22;18261;53.648;9.910;2024-03-08T03:57:51;1.90;99.90
31653;DHT22;18261;53.648;9.910;2024-03-08T04:00:16;1.90;99.90
31653;DHT22;18261;53.648;9.910;2024-03-08T04:02:42;1.90;99.90
31653;DHT22;18261;53.648;9.910;2024-03-08T04:05:09;1.90;99.90
31653;DHT22;18261;53.648;9.910;2024-03-08T04:07:35;1.90;99.90
31653;DHT22;18261;53.648;9.910;2024-03-08T04:10:02;1.90;99.90
31653;DHT22;18261;53.648;9.910;2024-03-08T04:12:28;1.90;99.90
31653;DHT22;18261;53.648;9.910;2024-03-08T04:14:55;1.80;99.90
31653;DHT22;18261;53.648;9.910;2024-03-08T04:17:21;1.90;99.90
31653;DHT22;18261;53.648;9.910;2024-03-08T04:19:47;1.90;99.90
31653;DHT22;18261;53.648;9.910;2024-03-08T04:22:14;1.90;99.90
31653;DHT22;18261;53.648;9.910;2024-03-08T04:24:39;1.80;99.90
31653;DHT22;18261;53.648;9.910;2024-03-08T04:27:06;1.80;99.90
31653;DHT22;18261;53.648;9.910;2024-03-08T04:29:32;1.80;99.90
31653;DHT22;18261;53.648;9.910;2024-03-08T04:31:58;1.90;99.90
31653;DHT22;18261;53.648;9.910;2024-03-08T04:34:24;1.90;99.90
31653;DHT22;18261;53.648;9.910;2024-03-08T04:36:50;1.80;99.90
31653;DHT22;18261;53.648;9.910;2024-03-08T04:39:15;1.80;99.90
31653;DHT22;18261;53.648;9.910;2024-03-08T04:41:41;1.70;99.90
31653;DHT22;18261;53.648;9.910;2024-03-08T04:44:12;1.90;99.90
31653;DHT22;18261;53.648;9.910;2024-03-08T04:46:38;1.70;99.90
31653;DHT22;18261;53.648;9.910;2024-03-08T04:49:03;1.70;99.90
31653;DHT22;18261;53.648;9.910;2024-03-08T04:51:29;1.70;99.90
31653;DHT22;18261;53.648;9.910;2024-03-08T04:53:55;1.70;99.90
31653;DHT22;18261;53.648;9.910;2024-03-08T04:56:22;1.80;99.90
31653;DHT22;18261;53.648;9.910;2024-03-08T04:58:48;1.80;99.90
31653;DHT22;18261;53.648;9.910;2024-03-08T05:01:13;1.80;99.90
31653;DHT22;18261;53.648;9.910;2024-03-08T05:03:39;1.80;99.90
31653;DHT22;18261;53.648;9.910;2024-03-08T05:06:04;1.70;99.90
31653;DHT22;18261;53.648;9.910;2024-03-08T05:08:30;1.70;99.90
31653;DHT22;18261;53.648;9.910;2024-03-08T05:10:56;1.60;99.90
31653;DHT22;18261;53.648;9.910;2024-03-08T05:13:21;1.60;99.90
31653;DHT22;18261;53.648;9.910;2024-03-08T05:15:49;1.60;99.90
31653;DHT22;18261;53.648;9.910;2024-03-08T05:18:16;1.70;99.90
31653;DHT22;18261;53.648;9.910;2024-03-08T05:20:41;1.70;99.90
31653;DHT22;18261;53.648;9.910;2024-03-08T05:23:07;1.70;99.90
31653;DHT22;18261;53.648;9.910;2024-03-08T05:25:33;1.70;99.90
31653;DHT22;18261;53.648;9.910;2024-03-08T05:27:59;1.70;99.90
31653;DHT22;18261;53.648;9.910;2024-03-08T05:30:25;1.60;99.90
31653;DHT22;18261;53.648;9.910;2024-03-08T05:32:50;1.70;99.90
31653;DHT22;18261;53.648;9.910;2024-03-08T05:35:16;1.80;99.90
31653;DHT22;18261;53.648;9.910;2024-03-08T05:37:42;1.70;99.90
31653;DHT22;18261;53.648;9.910;2024-03-08T05:40:10;1.70;99.90
31653;DHT22;18261;53.648;9.910;2024-03-08T05:42:36;1.70;99.90
31653;DHT22;18261;53.648;9.910;2024-03-08T05:45:02;1.70;99.90
31653;DHT22;18261;53.648;9.910;2024-03-08T05:47:28;1.70;99.90
31653;DHT22;18261;53.648;9.910;2024-03-08T05:49:54;1.70;99.90
31653;DHT22;18261;53.648;9.910;2024-03-08T05:52:20;1.70;99.90
31653;DHT22;18261;53.648;9.910;2024-03-08T05:54:45;1.70;99.90
31653;DHT22;18261;53.648;9.910;2024-03-08T05:57:12;1.70;99.90
31653;DHT22;18261;53.648;9.910;2024-03-08T05:59:39;1.70;99.90
31653;DHT22;18261;53.648;9.910;2024-03-08T06:02:05;1.70;99.90
31653;DHT22;18261;53.648;9.910;2024-03-08T06:04:30;1.70;99.90
31653;DHT22;18261;53.648;9.910;2024-03-08T06:06:56;1.70;99.90
31653;DHT22;18261;53.648;9.910;2024-03-08T06:09:26;1.70;99.90
31653;DHT22;18261;53.648;9.910;2024-03-08T06:11:52;1.70;99.90
31653;DHT22;18261;53.648;9.910;2024-03-08T06:14:19;1.80;99.90
31653;DHT22;18261;53.648;9.910;2024-03-08T06:16:45;1.80;99.90
31653;DHT22;18261;53.648;9.910;2024-03-08T06:19:12;1.80;99.90
31653;DHT22;18261;53.648;9.910;2024-03-08T06:21:38;1.80;99.90
31653;DHT22;18261;53.648;9.910;2024-03-08T06:24:03;1.80;99.90
31653;DHT22;18261;53.648;9.910;2024-03-08T06:26:29;1.90;99.90
31653;DHT22;18261;53.648;9.910;2024-03-08T06:28:55;1.90;99.90
31653;DHT22;18261;53.648;9.910;2024-03-08T06:31:21;1.90;99.90
31653;DHT22;18261;53.648;9.910;2024-03-08T06:33:47;1.90;99.90
31653;DHT22;18261;53.648;9.910;2024-03-08T06:36:16;1.90;99.90
31653;DHT22;18261;53.648;9.910;2024-03-08T06:38:47;2.00;99.90
31653;DHT22;18261;53.648;9.910;2024-03-08T06:41:12;1.90;99.90
31653;DHT22;18261;53.648;9.910;2024-03-08T06:43:44;1.90;99.90
31653;DHT22;18261;53.648;9.910;2024-03-08T06:46:10;2.00;99.90
31653;DHT22;18261;53.648;9.910;2024-03-08T06:48:38;2.10;99.90
31653;DHT22;18261;53.648;9.910;2024-03-08T06:51:04;2.10;99.90
31653;DHT22;18261;53.648;9.910;2024-03-08T06:53:30;2.10;99.90
31653;DHT22;18261;53.648;9.910;2024-03-08T06:55:57;2.20;99.90
31653;DHT22;18261;53.648;9.910;2024-03-08T06:58:23;2.80;99.90
31653;DHT22;18261;53.648;9.910;2024-03-08T07:00:48;2.20;99.90
31653;DHT22;18261;53.648;9.910;2024-03-08T07:03:18;2.20;99.90
31653;DHT22;18261;53.648;9.910;2024-03-08T07:05:43;2.30;99.90
31653;DHT22;18261;53.648;9.910;2024-03-08T07:08:09;2.30;99.90
31653;DHT22;18261;53.648;9.910;2024-03-08T07:10:35;2.40;99.90
31653;DHT22;18261;53.648;9.910;2024-03-08T07:13:02;2.50;99.90
31653;DHT22;18261;53.648;9.910;2024-03-08T07:15:28;2.50;99.90
31653;DHT22;18261;53.648;9.910;2024-03-08T07:17:54;2.50;99.90
31653;DHT22;18261;53.648;9.910;2024-03-08T07:20:20;2.60;99.90
31653;DHT22;18261;53.648;9.910;2024-03-08T07:22:47;2.60;99.90
31653;DHT22;18261;53.648;9.910;2024-03-08T07:25:16;2.80;99.90
31653;DHT22;18261;53.648;9.910;2024-03-08T07:27:49;2.90;99.90
31653;DHT22;18261;53.648;9.910;2024-03-08T07:30:15;3.00;99.90
31653;DHT22;18261;53.648;9.910;2024-03-08T07:33:19;3.20;99.90
31653;DHT22;18261;53.648;9.910;2024-03-08T07:35:45;3.40;99.90
31653;DHT22;18261;53.648;9.910;2024-03-08T07:38:12;3.40;99.90
31653;DHT22;18261;53.648;9.910;2024-03-08T07:40:39;3.50;99.90
31653;DHT22;18261;53.648;9.910;2024-03-08T07:43:07;3.50;99.80
31653;DHT22;18261;53.648;9.910;2024-03-08T07:45:32;3.50;99.40
31653;DHT22;18261;53.648;9.910;2024-03-08T07:47:58;3.60;99.90
31653;DHT22;18261;53.648;9.910;2024-03-08T07:50:23;3.60;97.90
31653;DHT22;18261;53.648;9.910;2024-03-08T07:52:49;3.70;98.00
31653;DHT22;18261;53.648;9.910;2024-03-08T07:55:15;3.90;97.50
31653;DHT22;18261;53.648;9.910;2024-03-08T07:57:41;3.90;95.60
31653;DHT22;18261;53.648;9.910;2024-03-08T08:00:08;4.00;93.10
31653;DHT22;18261;53.648;9.910;2024-03-08T08:02:34;4.10;91.00
31653;DHT22;18261;53.648;9.910;2024-03-08T08:05:01;4.00;88.90
31653;DHT22;18261;53.648;9.910;2024-03-08T08:07:26;4.10;90.70
31653;DHT22;18261;53.648;9.910;2024-03-08T08:09:53;4.20;89.80
31653;DHT22;18261;53.648;9.910;2024-03-08T08:12:19;4.20;79.70
31653;DHT22;18261;53.648;9.910;2024-03-08T08:14:44;4.30;79.30
31653;DHT22;18261;53.648;9.910;2024-03-08T08:17:10;4.40;79.00
31653;DHT22;18261;53.648;9.910;2024-03-08T08:19:36;4.50;71.50
31653;DHT22;18261;53.648;9.910;2024-03-08T08:22:02;4.60;71.30
31653;DHT22;18261;53.648;9.910;2024-03-08T08:24:28;4.70;65.50
31653;DHT22;18261;53.648;9.910;2024-03-08T08:26:53;4.90;61.40
31653;DHT22;18261;53.648;9.910;2024-03-08T08:29:19;4.90;48.20
31653;DHT22;18261;53.648;9.910;2024-03-08T08:31:46;5.00;50.30
31653;DHT22;18261;53.648;9.910;2024-03-08T08:34:12;5.10;47.10
31653;DHT22;18261;53.648;9.910;2024-03-08T08:36:39;5.50;46.10
31653;DHT22;18261;53.648;9.910;2024-03-08T08:39:05;6.10;25.70
31653;DHT22;18261;53.648;9.910;2024-03-08T08:41:37;6.60;1.00
31653;DHT22;18261;53.648;9.910;2024-03-08T08:44:03;7.30;1.00
31653;DHT22;18261;53.648;9.910;2024-03-08T08:46:29;7.70;1.00
31653;DHT22;18261;53.648;9.910;2024-03-08T08:48:54;8.50;1.00
31653;DHT22;18261;53.648;9.910;2024-03-08T08:51:20;8.90;99.90
31653;DHT22;18261;53.648;9.910;2024-03-08T08:53:46;9.30;1.00
31653;DHT22;18261;53.648;9.910;2024-03-08T08:58:42;10.10;99.90
31653;DHT22;18261;53.648;9.910;2024-03-08T09:01:09;10.50;1.00
31653;DHT22;18261;53.648;9.910;2024-03-08T09:03:37;10.90;1.00
31653;DHT22;18261;53.648;9.910;2024-03-08T09:06:06;11.40;1.00
31653;DHT22;18261;53.648;9.910;2024-03-08T09:08:37;11.90;99.90
31653;DHT22;18261;53.648;9.910;2024-03-08T09:11:03;12.20;1.00
31653;DHT22;18261;53.648;9.910;2024-03-08T09:13:29;13.30;99.90
31653;DHT22;18261;53.648;9.910;2024-03-08T09:15:57;13.20;99.90
31653;DHT22;18261;53.648;9.910;2024-03-08T09:18:22;13.20;99.90
31653;DHT22;18261;53.648;9.910;2024-03-08T09:20:49;13.10;99.90
31653;DHT22;18261;53.648;9.910;2024-03-08T09:23:15;13.30;99.90
31653;DHT22;18261;53.648;9.910;2024-03-08T09:25:42;13.30;1.00
31653;DHT22;18261;53.648;9.910;2024-03-08T09:28:09;13.60;1.00
31653;DHT22;18261;53.648;9.910;2024-03-08T09:30:37;13.80;1.00
31653;DHT22;18261;53.648;9.910;2024-03-08T09:33:04;13.90;1.00
31653;DHT22;18261;53.648;9.910;2024-03-08T09:35:29;13.90;99.90
31653;DHT22;18261;53.648;9.910;2024-03-08T09:37:55;14.10;99.90
31653;DHT22;18261;53.648;9.910;2024-03-08T09:40:21;14.50;99.90
31653;DHT22;18261;53.648;9.910;2024-03-08T09:42:49;14.90;99.90
31653;DHT22;18261;53.648;9.910;2024-03-08T09:45:17;15.00;93.80
31653;DHT22;18261;53.648;9.910;2024-03-08T09:47:44;14.80;95.40
31653;DHT22;18261;53.648;9.910;2024-03-08T09:50:10;15.10;99.90
31653;DHT22;18261;53.648;9.910;2024-03-08T09:52:38;15.70;25.10
31653;DHT22;18261;53.648;9.910;2024-03-08T09:55:06;15.80;1.00
31653;DHT22;18261;53.648;9.910;2024-03-08T09:57:33;16.00;1.00
31653;DHT22;18261;53.648;9.910;2024-03-08T09:59:59;16.10;1.00
31653;DHT22;18261;53.648;9.910;2024-03-08T10:02:25;16.20;1.00
31653;DHT22;18261;53.648;9.910;2024-03-08T10:04:51;16.40;1.00
31653;DHT22;18261;53.648;9.910;2024-03-08T10:07:19;16.40;1.00
31653;DHT22;18261;53.648;9.910;2024-03-08T10:09:44;16.60;1.00
31653;DHT22;18261;53.648;9.910;2024-03-08T10:12:16;16.60;1.00
31653;DHT22;18261;53.648;9.910;2024-03-08T10:14:42;16.80;1.00
31653;DHT22;18261;53.648;9.910;2024-03-08T10:17:09;17.10;1.00
31653;DHT22;18261;53.648;9.910;2024-03-08T10:19:35;17.10;1.00
31653;DHT22;18261;53.648;9.910;2024-03-08T10:22:00;17.10;1.00
31653;DHT22;18261;53.648;9.910;2024-03-08T10:24:26;16.80;1.00
31653;DHT22;18261;53.648;9.910;2024-03-08T10:27:01;16.80;1.00
31653;DHT22;18261;53.648;9.910;2024-03-08T10:29:33;16.90;1.00
31653;DHT22;18261;53.648;9.910;2024-03-08T10:31:59;17.00;1.00
31653;DHT22;18261;53.648;9.910;2024-03-08T10:34:25;17.30;1.00
